Latest Weather Observations for Port Macquarie Airport

IDN60801

Issued at 11:33 am EST Sunday 25 September 2016 (issued every 30 minutes, with the page automatically refreshed every 10 minutes)

About weather observations | Map of weather stations | Latest weather observations for NSW | Other Formats
Station Details ID: 060139 Name: PORT MACQUARIE AIRPORT AWS Lat: -31.43 Lon: 152.87 Height: 4.2 m
Data from the previous 72 hours. | See also: Recent months at Port Macquarie Airport
Date/Time
EST
Temp
°C
App
Temp
°C
Dew
Point
°C
Rel
Hum
%
Delta-T
°C
Wind Press
QNH
hPa
Press
MSL
hPa
Rain since
9am
mm
Dir  Spd
km/h
Gust
km/h
Spd
kts
Gust
kts
25/11:30am 22.6 19.3 11.0 48 6.4 WNW 19 28 10 15 1005.3 1005.3 0.0
25/11:00am 22.6 19.5 10.4 46 6.7 WSW 17 26 9 14 1005.6 1005.6 0.0
25/10:30am 21.8 18.4 9.3 45 6.7 W 17 24 9 13 1005.8 1005.8 0.0
25/10:00am 20.6 18.1 11.0 54 5.3 SW 15 22 8 12 1006.3 1006.3 0.0
25/09:30am 19.0 17.1 11.8 63 4.0 W 13 19 7 10 1006.6 1006.6 0.0
25/09:00am 18.8 16.9 13.0 69 3.3 W 15 22 8 12 1006.6 1006.6 0.0
25/08:30am 18.1 17.7 14.0 77 2.3 W 9 13 5 7 1006.5 1006.5 0.0
25/08:00am 17.9 17.7 14.6 81 1.9 WSW 9 13 5 7 1006.3 1006.3 0.0
25/07:30am 15.9 15.8 13.9 88 1.1 WNW 7 11 4 6 1006.7 1006.7 0.0
25/07:00am 15.3 15.3 14.2 93 0.6 NW 7 9 4 5 1006.6 1006.6 0.0
25/06:30am 14.9 16.1 13.8 93 0.6 CALM 0 0 0 0 1006.4 1006.4 0.0
25/06:00am 15.2 15.2 14.1 93 0.6 NNW 7 9 4 5 1006.6 1006.6 0.0
25/05:30am 15.1 14.3 14.0 93 0.6 WNW 11 13 6 7 1006.7 1006.7 0.0
25/05:00am 14.9 14.4 13.8 93 0.6 NW 9 11 5 6 1006.6 1006.6 0.0
25/04:30am 15.2 14.7 13.9 92 0.7 NNW 9 13 5 7 1006.8 1006.8 0.0
25/04:00am 15.6 15.3 14.3 92 0.7 WNW 9 13 5 7 1006.6 1006.6 0.0
25/03:30am 15.4 14.4 14.6 95 0.5 W 13 15 7 8 1006.3 1006.3 0.0
25/03:00am 14.1 15.1 13.3 95 0.4 CALM 0 0 0 0 1006.3 1006.3 0.0
25/02:30am 14.2 15.2 13.2 94 0.6 CALM 0 0 0 0 1006.7 1006.7 0.0
25/02:00am 14.0 15.0 13.1 94 0.5 CALM 0 0 0 0 1007.1 1007.1 0.0
25/01:30am 14.5 15.7 13.7 95 0.4 CALM 0 4 0 2 1007.7 1007.7 0.0
25/01:00am 13.8 14.7 12.9 94 0.5 CALM 0 0 0 0 1008.2 1008.2 0.0
25/12:30am 13.9 14.9 13.1 95 0.4 CALM 0 0 0 0 1008.3 1008.3 0.0
25/12:00am 13.4 14.1 12.3 93 0.6 CALM 0 0 0 0 1008.6 1008.6 0.0
 
Date/Time
EST
Temp
°C
App
Temp
°C
Dew
Point
°C
Rel
Hum
%
Delta-T
°C
Wind Press
QNH
hPa
Press
MSL
hPa
Rain since
9am
mm
Dir  Spd
km/h
Gust
km/h
Spd
kts
Gust
kts
24/11:30pm 14.2 15.3 13.4 95 0.4 CALM 0 0 0 0 1008.8 1008.8 0.0
24/11:00pm 13.7 14.6 12.9 95 0.4 CALM 0 0 0 0 1008.9 1008.9 0.0
24/10:30pm 13.1 13.7 12.0 93 0.6 CALM 0 0 0 0 1009.2 1009.2 0.0
24/10:00pm 13.2 13.9 12.1 93 0.6 CALM 0 0 0 0 1009.7 1009.7 0.0
24/09:30pm 13.4 14.2 12.5 94 0.5 CALM 0 0 0 0 1009.9 1009.9 0.0
24/09:00pm 13.4 14.2 12.5 94 0.5 CALM 0 0 0 0 1009.8 1009.8 0.0
24/08:30pm 13.8 14.6 12.7 93 0.6 CALM 0 0 0 0 1009.9 1009.9 0.0
24/08:00pm 14.2 15.0 12.6 90 0.9 CALM 0 0 0 0 1009.7 1009.7 0.0
24/07:30pm 14.9 15.8 12.8 87 1.2 CALM 0 0 0 0 1009.8 1009.8 0.0
24/07:00pm 15.7 16.7 13.2 85 1.4 CALM 0 0 0 0 1009.6 1009.6 0.0
24/06:30pm 17.0 17.2 14.1 83 1.7 N 6 6 3 3 1009.3 1009.3 0.0
24/06:00pm 18.6 18.7 14.5 77 2.4 E 7 9 4 5 1009.0 1009.0 0.0
24/05:30pm 19.2 18.9 14.5 74 2.7 ESE 9 13 5 7 1009.0 1009.0 0.0
24/05:00pm 19.9 19.3 14.5 71 3.1 SE 11 15 6 8 1009.0 1009.0 0.0
24/04:30pm 20.5 19.0 14.2 67 3.7 SE 15 22 8 12 1008.4 1008.4 0.0
24/04:00pm 21.2 19.5 14.6 66 3.9 SE 17 22 9 12 1008.1 1008.1 0.0
24/03:30pm 21.1 19.2 14.3 65 4.0 SE 17 22 9 12 1008.0 1008.0 0.0
24/03:00pm 21.7 19.3 14.4 63 4.3 SSE 20 26 11 14 1008.1 1008.1 0.0
24/02:30pm 22.0 19.5 14.1 61 4.6 SSE 20 30 11 16 1008.3 1008.3 0.0
24/02:00pm 21.9 19.0 13.0 57 5.1 SE 20 30 11 16 1008.7 1008.7 0.0
24/01:30pm 22.4 19.2 13.2 56 5.3 SSE 22 32 12 17 1009.0 1009.0 0.0
24/01:00pm 22.3 19.3 13.6 58 5.0 SE 22 30 12 16 1009.3 1009.3 0.0
24/12:30pm 22.4 19.8 13.2 56 5.3 SE 19 26 10 14 1009.6 1009.6 0.0
24/12:00pm 22.0 19.3 13.4 58 5.0 SE 20 28 11 15 1010.0 1010.0 0.0
24/11:30am 22.7 20.5 13.2 55 5.5 SSE 17 28 9 15 1010.3 1010.3 0.0
24/11:00am 22.7 21.0 12.3 52 5.9 S 13 30 7 16 1010.6 1010.6 0.0
24/10:30am 22.3 19.9 11.4 50 6.1 SSW 15 26 8 14 1011.1 1011.1 0.0
24/10:00am 21.7 19.3 11.4 52 5.7 SW 15 20 8 11 1011.4 1011.4 0.0
24/09:30am 21.5 20.2 12.6 57 5.0 W 11 19 6 10 1011.6 1011.6 0.0
24/09:00am 20.6 18.8 12.1 58 4.8 W 13 20 7 11 1012.0 1012.0 0.0
24/08:30am 18.8 17.1 11.1 61 4.2 WSW 11 15 6 8 1012.1 1012.1 0.0
24/08:00am 17.9 16.2 11.2 65 3.6 W 11 17 6 9 1012.3 1012.3 0.0
24/07:30am 16.5 13.9 10.8 69 3.0 W 15 19 8 10 1012.3 1012.3 0.0
24/07:00am 15.1 13.3 10.7 75 2.3 WSW 11 15 6 8 1012.3 1012.3 0.0
24/06:30am 13.8 11.8 10.2 79 1.9 W 11 19 6 10 1012.0 1012.0 0.0
24/06:00am 12.7 11.0 9.9 83 1.4 WNW 9 13 5 7 1011.7 1011.7 0.0
24/05:30am 12.2 10.8 9.4 83 1.4 SW 7 11 4 6 1011.3 1011.3 0.0
24/05:00am 12.7 11.4 10.1 84 1.3 W 7 15 4 8 1011.0 1011.0 0.0
24/04:30am 13.0 10.6 10.0 82 1.5 WNW 13 19 7 10 1010.7 1010.7 0.0
24/04:00am 13.0 10.3 10.2 83 1.4 WNW 15 19 8 10 1010.6 1010.6 0.0
24/03:30am 13.0 10.6 10.2 83 1.4 W 13 17 7 9 1010.5 1010.5 0.0
24/03:00am 12.9 11.0 10.4 85 1.3 W 11 15 6 8 1010.7 1010.7 0.0
24/02:30am 11.5 10.1 9.6 88 1.0 WNW 7 9 4 5 1010.8 1010.8 0.0
24/02:00am 11.0 10.6 8.4 84 1.3 CALM 0 0 0 0 1010.8 1010.8 0.0
24/01:30am 13.1 11.5 10.1 82 1.5 WNW 9 13 5 7 1010.9 1010.9 0.0
24/01:00am 13.7 11.4 10.3 80 1.8 WNW 13 15 7 8 1010.9 1010.9 0.0
24/12:30am 14.1 12.1 10.1 77 2.1 WNW 11 15 6 8 1011.1 1011.1 0.0
24/12:00am 14.3 12.2 11.1 81 1.7 WSW 13 15 7 8 1011.3 1011.3 0.0
 
Date/Time
EST
Temp
°C
App
Temp
°C
Dew
Point
°C
Rel
Hum
%
Delta-T
°C
Wind Press
QNH
hPa
Press
MSL
hPa
Rain since
9am
mm
Dir  Spd
km/h
Gust
km/h
Spd
kts
Gust
kts
23/11:30pm 13.8 12.1 10.0 78 2.0 WSW 9 13 5 7 1011.4 1011.4 0.0
23/11:00pm 15.2 13.1 11.2 77 2.1 W 13 17 7 9 1011.5 1011.5 0.0
23/10:30pm 14.0 12.0 10.2 78 2.0 NW 11 13 6 7 1011.3 1011.3 0.0
23/10:00pm 15.5 13.4 11.1 75 2.4 WSW 13 17 7 9 1011.1 1011.1 0.0
23/09:30pm 15.1 13.3 10.9 76 2.2 WSW 11 15 6 8 1011.4 1011.4 0.0
23/09:00pm 16.0 14.7 11.2 73 2.6 SSW 9 17 5 9 1011.5 1011.5 0.0
23/08:30pm 15.0 13.1 10.4 74 2.4 SW 11 15 6 8 1011.2 1011.2 0.0
23/08:00pm 15.9 13.2 10.4 70 2.9 SW 15 17 8 9 1011.2 1011.2 0.0
23/07:30pm 15.9 14.7 10.2 69 3.0 SW 7 9 4 5 1011.0 1011.0 0.0
23/07:00pm 16.5 14.6 10.4 67 3.2 WSW 11 15 6 8 1010.5 1010.5 0.0
23/06:30pm 17.3 15.7 10.2 63 3.8 WSW 9 11 5 6 1010.0 1010.0 0.0
23/06:00pm 18.5 15.3 10.1 58 4.5 SSW 17 22 9 12 1009.3 1009.3 0.0
23/05:30pm 19.9 16.4 10.3 54 5.2 SW 19 26 10 14 1009.2 1009.2 0.0
23/05:00pm 21.0 16.6 10.5 51 5.7 WSW 24 41 13 22 1009.1 1009.1 0.0
23/04:30pm 21.4 17.1 10.6 50 5.9 SW 24 32 13 17 1008.8 1008.8 0.0
23/04:00pm 22.0 16.9 10.5 48 6.3 SW 28 46 15 25 1008.6 1008.6 0.0
23/03:55pm 22.2 17.1 10.7 48 6.3 SW 28 46 15 25 1008.6 1008.6 0.0
23/03:30pm 22.6 16.8 10.7 47 6.6 SW 32 44 17 24 1008.4 1008.4 0.0
23/03:00pm 22.1 17.1 10.9 49 6.2 SW 28 37 15 20 1008.0 1008.0 0.0
23/02:30pm 23.2 18.2 10.9 46 6.8 WSW 28 39 15 21 1007.9 1007.9 0.0
23/02:13pm 22.7 17.1 10.2 45 6.8 SW 30 48 16 26 1008.1 1008.1 0.0
23/02:00pm 23.8 19.4 11.8 47 6.8 SW 26 37 14 20 1008.2 1008.2 0.0
23/01:30pm 22.0 17.0 10.8 49 6.2 WSW 28 43 15 23 1008.4 1008.4 0.0
23/01:00pm 22.3 16.9 10.8 48 6.4 WSW 30 46 16 25 1008.5 1008.5 0.0
23/12:30pm 22.5 17.4 10.6 47 6.5 SW 28 43 15 23 1008.6 1008.6 0.0
23/12:00pm 21.5 15.9 10.0 48 6.2 SW 30 44 16 24 1008.9 1008.9 0.0
23/11:30am 21.9 16.9 11.0 50 6.0 WSW 28 41 15 22 1009.1 1009.1 0.0
23/11:00am 21.1 16.7 10.3 50 5.9 WSW 24 33 13 18 1009.3 1009.3 0.0
23/10:30am 20.0 14.3 9.9 52 5.4 WSW 30 43 16 23 1009.4 1009.4 0.0
23/10:00am 19.9 15.0 9.8 52 5.4 WSW 26 41 14 22 1009.5 1009.5 0.0
23/09:30am 19.8 14.4 9.4 51 5.5 WSW 28 41 15 22 1009.6 1009.6 0.0
23/09:00am 20.0 15.4 9.6 51 5.5 WSW 24 41 13 22 1009.6 1009.6 0.0
23/08:30am 19.9 15.3 9.8 52 5.4 W 24 39 13 21 1009.5 1009.5 0.0
23/08:00am 18.1 14.1 9.2 56 4.7 W 20 30 11 16 1009.5 1009.5 0.0
23/07:30am 16.7 13.2 8.9 60 4.0 W 17 26 9 14 1009.7 1009.7 0.0
23/07:00am 16.4 12.9 8.6 60 4.0 W 17 22 9 12 1009.4 1009.4 0.0
23/06:30am 15.8 11.8 8.3 61 3.8 W 19 26 10 14 1009.2 1009.2 0.0
23/06:00am 15.1 11.4 8.1 63 3.5 W 17 22 9 12 1008.8 1008.8 0.0
23/05:30am 14.0 11.0 7.8 66 3.1 WSW 13 17 7 9 1008.2 1008.2 0.0
23/05:00am 13.8 11.5 7.6 66 3.1 W 9 13 5 7 1008.0 1008.0 0.0
23/04:30am 14.4 11.7 7.5 63 3.4 W 11 15 6 8 1007.8 1007.8 0.0
23/04:00am 15.3 11.9 7.6 60 3.8 W 15 20 8 11 1007.7 1007.7 0.0
23/03:30am 15.2 12.0 7.0 58 4.0 W 13 24 7 13 1007.7 1007.7 0.0
23/03:00am 15.8 11.9 7.1 56 4.3 W 17 24 9 13 1007.7 1007.7 0.0
23/02:30am 15.6 12.0 6.9 56 4.3 W 15 26 8 14 1007.8 1007.8 0.0
23/02:00am 15.7 12.1 6.7 55 4.4 WNW 15 22 8 12 1007.9 1007.9 0.0
23/01:30am 15.7 11.7 6.7 55 4.4 WNW 17 22 9 12 1008.0 1008.0 0.0
23/01:00am 15.6 12.7 6.6 55 4.4 WNW 11 19 6 10 1008.3 1008.3 0.0
23/12:30am 15.5 13.0 6.5 55 4.4 WNW 9 15 5 8 1008.6 1008.6 0.0
23/12:00am 16.4 13.4 6.2 51 5.0 W 11 15 6 8 1009.0 1009.0 0.0
 
Date/Time
EST
Temp
°C
App
Temp
°C
Dew
Point
°C
Rel
Hum
%
Delta-T
°C
Wind Press
QNH
hPa
Press
MSL
hPa
Rain since
9am
mm
Dir  Spd
km/h
Gust
km/h
Spd
kts
Gust
kts
22/11:30pm 17.0 13.7 6.5 50 5.2 W 13 20 7 11 1009.0 1009.0 0.0
22/11:00pm 17.2 14.6 6.1 48 5.4 W 9 15 5 8 1009.0 1009.0 0.0
22/10:30pm 17.3 13.6 6.2 48 5.4 WNW 15 22 8 12 1008.9 1008.9 0.0
22/10:00pm 17.2 13.5 6.4 49 5.3 WNW 15 20 8 11 1008.8 1008.8 0.0
22/09:30pm 15.8 13.4 7.1 56 4.3 NW 9 11 5 6 1008.9 1008.9 0.0
22/09:00pm 15.8 13.4 7.1 56 4.3 WNW 9 15 5 8 1009.0 1009.0 0.0
22/08:30pm 15.9 13.6 7.4 57 4.2 NNW 9 13 5 7 1008.8 1008.8 0.0
22/08:00pm 16.5 14.2 7.4 55 4.6 NW 9 13 5 7 1008.8 1008.8 0.0
22/07:30pm 17.6 14.3 6.2 47 5.6 WNW 13 15 7 8 1008.6 1008.6 0.0
22/07:00pm 18.3 14.2 6.2 45 6.0 W 17 24 9 13 1008.8 1008.8 0.0
22/06:30pm 17.8 14.7 7.2 50 5.3 W 13 22 7 12 1008.4 1008.4 0.0
22/06:00pm 17.5 15.5 7.3 51 5.1 WSW 7 11 4 6 1008.1 1008.1 0.0
22/05:30pm 19.1 16.7 7.2 46 6.0 WSW 9 13 5 7 1007.5 1007.5 0.0
22/05:00pm 20.9 18.0 6.4 39 7.3 WSW 11 15 6 8 1007.1 1007.1 0.0
22/04:30pm 21.6 17.1 5.9 36 7.9 W 19 24 10 13 1006.7 1006.7 0.0
22/04:00pm 21.9 16.8 6.2 36 8.0 W 22 32 12 17 1006.3 1006.3 0.0
22/03:30pm 22.2 16.6 5.6 34 8.3 WSW 24 35 13 19 1006.0 1006.0 0.0
22/03:00pm 22.9 17.7 7.1 36 8.2 WSW 24 33 13 18 1005.7 1005.7 0.0
22/02:30pm 22.5 17.2 6.7 36 8.1 WSW 24 37 13 20 1005.7 1005.7 0.0
22/02:00pm 23.1 18.0 7.6 37 8.1 WSW 24 33 13 18 1005.8 1005.8 0.0
22/01:30pm 21.9 17.3 6.6 37 7.8 W 20 35 11 19 1006.0 1006.0 0.0
22/01:00pm 21.9 16.7 7.3 39 7.6 W 24 37 13 20 1006.2 1006.2 0.0
22/12:30pm 23.3 19.2 8.6 39 7.8 WSW 20 37 11 20 1006.4 1006.4 0.0
22/12:00pm 21.7 17.8 8.6 43 6.9 WSW 19 30 10 16 1006.7 1006.7 0.0

Other Formats:

Comma delimited format used in spreadsheet applications
http://www.bom.gov.au/fwo/IDN60801/IDN60801.94786.axf

JavaScript Object Notation format (JSON) in row-major order
http://www.bom.gov.au/fwo/IDN60801/IDN60801.94786.json